sensor_id;sensor_type;location;lat;lon;timestamp;P1;durP1;ratioP1;P2;durP2;ratioP2
23338;SDS011;11841;49.368;20.962;2022-09-13T00:01:56;8.70;;;3.60;;
23338;SDS011;11841;49.368;20.962;2022-09-13T00:04:23;4.78;;;2.97;;
23338;SDS011;11841;49.368;20.962;2022-09-13T00:06:50;6.22;;;3.17;;
23338;SDS011;11841;49.368;20.962;2022-09-13T00:09:16;6.30;;;2.95;;
23338;SDS011;11841;49.368;20.962;2022-09-13T00:11:43;4.78;;;2.63;;
23338;SDS011;11841;49.368;20.962;2022-09-13T00:14:09;5.53;;;2.88;;
23338;SDS011;11841;49.368;20.962;2022-09-13T00:16:36;4.13;;;2.80;;
23338;SDS011;11841;49.368;20.962;2022-09-13T00:19:02;5.13;;;2.88;;
23338;SDS011;11841;49.368;20.962;2022-09-13T00:21:29;6.50;;;3.28;;
23338;SDS011;11841;49.368;20.962;2022-09-13T00:23:56;5.72;;;3.15;;
23338;SDS011;11841;49.368;20.962;2022-09-13T00:26:26;3.88;;;2.55;;
23338;SDS011;11841;49.368;20.962;2022-09-13T00:28:54;3.08;;;2.78;;
23338;SDS011;11841;49.368;20.962;2022-09-13T00:31:24;2.72;;;2.53;;
23338;SDS011;11841;49.368;20.962;2022-09-13T00:33:52;7.00;;;3.08;;
23338;SDS011;11841;49.368;20.962;2022-09-13T00:36:19;4.50;;;3.17;;
23338;SDS011;11841;49.368;20.962;2022-09-13T00:38:46;7.38;;;3.22;;
23338;SDS011;11841;49.368;20.962;2022-09-13T00:41:14;5.85;;;3.20;;
23338;SDS011;11841;49.368;20.962;2022-09-13T00:43:43;3.63;;;2.80;;
23338;SDS011;11841;49.368;20.962;2022-09-13T00:46:18;4.93;;;2.83;;
23338;SDS011;11841;49.368;20.962;2022-09-13T00:51:56;4.40;;;3.00;;
23338;SDS011;11841;49.368;20.962;2022-09-13T00:54:26;4.20;;;2.83;;
23338;SDS011;11841;49.368;20.962;2022-09-13T00:56:57;4.95;;;2.58;;
23338;SDS011;11841;49.368;20.962;2022-09-13T00:59:28;4.57;;;2.50;;
23338;SDS011;11841;49.368;20.962;2022-09-13T01:01:59;3.47;;;2.90;;
23338;SDS011;11841;49.368;20.962;2022-09-13T01:04:27;5.25;;;2.83;;
23338;SDS011;11841;49.368;20.962;2022-09-13T01:06:58;4.43;;;2.30;;
23338;SDS011;11841;49.368;20.962;2022-09-13T01:09:28;4.40;;;3.00;;
23338;SDS011;11841;49.368;20.962;2022-09-13T01:12:00;2.95;;;2.42;;
23338;SDS011;11841;49.368;20.962;2022-09-13T01:14:35;3.38;;;2.42;;
23338;SDS011;11841;49.368;20.962;2022-09-13T01:17:02;4.07;;;3.28;;
23338;SDS011;11841;49.368;20.962;2022-09-13T01:19:29;7.60;;;3.47;;
23338;SDS011;11841;49.368;20.962;2022-09-13T01:22:10;8.07;;;3.58;;
23338;SDS011;11841;49.368;20.962;2022-09-13T01:44:36;5.78;;;3.40;;
23338;SDS011;11841;49.368;20.962;2022-09-13T01:47:36;4.90;;;3.22;;
23338;SDS011;11841;49.368;20.962;2022-09-13T02:01:00;7.45;;;3.50;;
23338;SDS011;11841;49.368;20.962;2022-09-13T02:03:36;11.75;;;4.05;;
23338;SDS011;11841;49.368;20.962;2022-09-13T02:06:19;5.32;;;3.92;;
23338;SDS011;11841;49.368;20.962;2022-09-13T02:08:53;7.90;;;3.53;;
23338;SDS011;11841;49.368;20.962;2022-09-13T02:11:22;6.18;;;4.38;;
23338;SDS011;11841;49.368;20.962;2022-09-13T02:14:24;7.13;;;4.50;;
23338;SDS011;11841;49.368;20.962;2022-09-13T02:17:03;6.15;;;3.45;;
23338;SDS011;11841;49.368;20.962;2022-09-13T02:19:34;4.13;;;3.03;;
23338;SDS011;11841;49.368;20.962;2022-09-13T02:22:05;7.32;;;3.40;;
23338;SDS011;11841;49.368;20.962;2022-09-13T02:24:35;8.30;;;3.97;;
23338;SDS011;11841;49.368;20.962;2022-09-13T02:27:07;6.35;;;2.47;;
23338;SDS011;11841;49.368;20.962;2022-09-13T02:29:38;3.53;;;2.55;;
23338;SDS011;11841;49.368;20.962;2022-09-13T02:37:38;3.85;;;3.25;;
23338;SDS011;11841;49.368;20.962;2022-09-13T02:40:09;5.32;;;3.55;;
23338;SDS011;11841;49.368;20.962;2022-09-13T02:43:03;4.22;;;3.33;;
23338;SDS011;11841;49.368;20.962;2022-09-13T02:45:45;6.38;;;3.33;;
23338;SDS011;11841;49.368;20.962;2022-09-13T02:48:20;3.10;;;2.78;;
23338;SDS011;11841;49.368;20.962;2022-09-13T02:51:06;5.57;;;3.58;;
23338;SDS011;11841;49.368;20.962;2022-09-13T02:53:46;8.50;;;4.22;;
23338;SDS011;11841;49.368;20.962;2022-09-13T02:56:38;6.60;;;3.55;;
23338;SDS011;11841;49.368;20.962;2022-09-13T03:01:46;4.57;;;2.88;;
23338;SDS011;11841;49.368;20.962;2022-09-13T03:04:20;3.47;;;2.72;;
23338;SDS011;11841;49.368;20.962;2022-09-13T03:06:47;5.82;;;3.28;;
23338;SDS011;11841;49.368;20.962;2022-09-13T03:09:14;9.32;;;2.75;;
23338;SDS011;11841;49.368;20.962;2022-09-13T03:12:05;5.22;;;2.70;;
23338;SDS011;11841;49.368;20.962;2022-09-13T03:21:06;3.55;;;2.95;;
23338;SDS011;11841;49.368;20.962;2022-09-13T03:37:56;6.93;;;3.38;;
23338;SDS011;11841;49.368;20.962;2022-09-13T03:45:53;5.85;;;3.22;;
23338;SDS011;11841;49.368;20.962;2022-09-13T03:48:24;7.13;;;3.17;;
23338;SDS011;11841;49.368;20.962;2022-09-13T03:50:52;6.78;;;3.80;;
23338;SDS011;11841;49.368;20.962;2022-09-13T03:53:24;4.95;;;3.20;;
23338;SDS011;11841;49.368;20.962;2022-09-13T03:55:52;4.00;;;3.25;;
23338;SDS011;11841;49.368;20.962;2022-09-13T03:58:19;6.28;;;3.50;;
23338;SDS011;11841;49.368;20.962;2022-09-13T04:00:47;4.75;;;3.25;;
23338;SDS011;11841;49.368;20.962;2022-09-13T04:03:14;6.40;;;3.55;;
23338;SDS011;11841;49.368;20.962;2022-09-13T04:05:40;3.78;;;3.00;;
23338;SDS011;11841;49.368;20.962;2022-09-13T04:08:07;6.65;;;3.60;;
23338;SDS011;11841;49.368;20.962;2022-09-13T04:10:34;11.98;;;3.42;;
23338;SDS011;11841;49.368;20.962;2022-09-13T04:13:01;6.35;;;3.75;;
23338;SDS011;11841;49.368;20.962;2022-09-13T04:15:28;6.03;;;3.30;;
23338;SDS011;11841;49.368;20.962;2022-09-13T04:17:56;4.68;;;3.45;;
23338;SDS011;11841;49.368;20.962;2022-09-13T04:20:22;4.38;;;3.00;;
23338;SDS011;11841;49.368;20.962;2022-09-13T04:22:51;5.43;;;3.80;;
23338;SDS011;11841;49.368;20.962;2022-09-13T04:25:21;4.57;;;3.20;;
23338;SDS011;11841;49.368;20.962;2022-09-13T04:27:52;9.93;;;3.55;;
23338;SDS011;11841;49.368;20.962;2022-09-13T04:30:20;3.85;;;3.28;;
23338;SDS011;11841;49.368;20.962;2022-09-13T04:32:48;4.43;;;3.05;;
23338;SDS011;11841;49.368;20.962;2022-09-13T04:35:15;4.35;;;3.30;;
23338;SDS011;11841;49.368;20.962;2022-09-13T04:37:43;4.38;;;2.88;;
23338;SDS011;11841;49.368;20.962;2022-09-13T04:40:09;3.17;;;2.70;;
23338;SDS011;11841;49.368;20.962;2022-09-13T04:42:36;8.30;;;3.63;;
23338;SDS011;11841;49.368;20.962;2022-09-13T04:45:03;5.55;;;3.85;;
23338;SDS011;11841;49.368;20.962;2022-09-13T04:47:30;6.35;;;4.35;;
23338;SDS011;11841;49.368;20.962;2022-09-13T04:49:57;5.22;;;3.25;;
23338;SDS011;11841;49.368;20.962;2022-09-13T04:52:23;4.38;;;3.53;;
23338;SDS011;11841;49.368;20.962;2022-09-13T04:54:50;9.57;;;4.50;;
23338;SDS011;11841;49.368;20.962;2022-09-13T04:57:17;7.38;;;3.97;;
23338;SDS011;11841;49.368;20.962;2022-09-13T04:59:43;5.38;;;3.17;;
23338;SDS011;11841;49.368;20.962;2022-09-13T05:02:09;6.07;;;4.18;;
23338;SDS011;11841;49.368;20.962;2022-09-13T05:04:36;5.97;;;3.92;;
23338;SDS011;11841;49.368;20.962;2022-09-13T05:07:03;10.30;;;4.88;;
23338;SDS011;11841;49.368;20.962;2022-09-13T05:09:30;6.38;;;3.63;;
23338;SDS011;11841;49.368;20.962;2022-09-13T05:11:57;9.05;;;3.75;;
23338;SDS011;11841;49.368;20.962;2022-09-13T05:14:23;7.30;;;4.25;;
23338;SDS011;11841;49.368;20.962;2022-09-13T05:16:50;5.95;;;3.95;;
23338;SDS011;11841;49.368;20.962;2022-09-13T05:19:16;4.85;;;4.05;;
23338;SDS011;11841;49.368;20.962;2022-09-13T05:21:43;8.75;;;4.10;;
23338;SDS011;11841;49.368;20.962;2022-09-13T05:24:09;6.80;;;4.70;;
23338;SDS011;11841;49.368;20.962;2022-09-13T05:26:37;6.88;;;3.50;;
23338;SDS011;11841;49.368;20.962;2022-09-13T05:29:03;5.72;;;4.00;;
23338;SDS011;11841;49.368;20.962;2022-09-13T05:31:32;5.75;;;3.42;;
23338;SDS011;11841;49.368;20.962;2022-09-13T05:34:02;6.07;;;3.67;;
23338;SDS011;11841;49.368;20.962;2022-09-13T05:36:31;6.75;;;4.32;;
23338;SDS011;11841;49.368;20.962;2022-09-13T05:38:58;6.90;;;4.63;;
23338;SDS011;11841;49.368;20.962;2022-09-13T05:41:45;7.22;;;3.72;;
23338;SDS011;11841;49.368;20.962;2022-09-13T05:44:12;5.70;;;3.55;;
23338;SDS011;11841;49.368;20.962;2022-09-13T05:46:39;8.38;;;3.80;;
23338;SDS011;11841;49.368;20.962;2022-09-13T05:49:07;5.00;;;4.05;;
23338;SDS011;11841;49.368;20.962;2022-09-13T05:51:34;7.18;;;4.20;;
23338;SDS011;11841;49.368;20.962;2022-09-13T05:54:01;7.47;;;4.28;;
23338;SDS011;11841;49.368;20.962;2022-09-13T05:56:28;5.45;;;4.43;;
23338;SDS011;11841;49.368;20.962;2022-09-13T05:58:55;6.03;;;4.03;;
23338;SDS011;11841;49.368;20.962;2022-09-13T06:01:23;6.40;;;3.65;;
23338;SDS011;11841;49.368;20.962;2022-09-13T06:03:52;5.57;;;4.15;;
23338;SDS011;11841;49.368;20.962;2022-09-13T06:06:20;8.55;;;4.43;;
23338;SDS011;11841;49.368;20.962;2022-09-13T06:08:52;6.28;;;3.92;;
23338;SDS011;11841;49.368;20.962;2022-09-13T06:11:19;6.90;;;4.32;;
23338;SDS011;11841;49.368;20.962;2022-09-13T06:13:46;6.97;;;5.22;;
23338;SDS011;11841;49.368;20.962;2022-09-13T06:16:14;6.80;;;4.35;;
23338;SDS011;11841;49.368;20.962;2022-09-13T06:18:42;7.63;;;4.47;;
23338;SDS011;11841;49.368;20.962;2022-09-13T06:21:13;7.47;;;5.45;;
23338;SDS011;11841;49.368;20.962;2022-09-13T06:23:47;6.53;;;4.32;;
23338;SDS011;11841;49.368;20.962;2022-09-13T06:26:16;8.25;;;4.60;;
23338;SDS011;11841;49.368;20.962;2022-09-13T06:28:51;6.05;;;4.32;;
23338;SDS011;11841;49.368;20.962;2022-09-13T06:31:20;5.68;;;4.22;;
23338;SDS011;11841;49.368;20.962;2022-09-13T06:33:48;8.30;;;4.47;;
23338;SDS011;11841;49.368;20.962;2022-09-13T06:36:15;4.43;;;3.80;;
23338;SDS011;11841;49.368;20.962;2022-09-13T06:38:43;6.13;;;3.70;;
23338;SDS011;11841;49.368;20.962;2022-09-13T06:41:12;5.70;;;4.03;;
23338;SDS011;11841;49.368;20.962;2022-09-13T06:43:41;7.25;;;4.18;;
23338;SDS011;11841;49.368;20.962;2022-09-13T06:46:11;7.00;;;4.97;;
23338;SDS011;11841;49.368;20.962;2022-09-13T06:48:49;4.75;;;3.75;;
23338;SDS011;11841;49.368;20.962;2022-09-13T06:51:17;7.20;;;4.57;;
23338;SDS011;11841;49.368;20.962;2022-09-13T06:53:45;15.77;;;5.03;;
23338;SDS011;11841;49.368;20.962;2022-09-13T06:56:18;7.63;;;4.75;;
23338;SDS011;11841;49.368;20.962;2022-09-13T06:58:46;5.15;;;4.13;;
23338;SDS011;11841;49.368;20.962;2022-09-13T07:01:18;8.10;;;4.93;;
23338;SDS011;11841;49.368;20.962;2022-09-13T07:03:49;6.63;;;5.40;;
23338;SDS011;11841;49.368;20.962;2022-09-13T07:06:18;9.25;;;4.78;;
23338;SDS011;11841;49.368;20.962;2022-09-13T07:08:48;6.38;;;4.55;;
23338;SDS011;11841;49.368;20.962;2022-09-13T07:11:16;10.05;;;5.13;;
23338;SDS011;11841;49.368;20.962;2022-09-13T07:13:47;7.25;;;5.55;;
23338;SDS011;11841;49.368;20.962;2022-09-13T07:16:15;6.95;;;5.03;;
23338;SDS011;11841;49.368;20.962;2022-09-13T07:18:43;6.60;;;4.82;;
23338;SDS011;11841;49.368;20.962;2022-09-13T07:21:10;9.20;;;5.00;;
23338;SDS011;11841;49.368;20.962;2022-09-13T07:23:37;8.85;;;4.60;;
23338;SDS011;11841;49.368;20.962;2022-09-13T07:26:05;5.70;;;4.57;;
23338;SDS011;11841;49.368;20.962;2022-09-13T07:28:42;5.95;;;4.85;;
23338;SDS011;11841;49.368;20.962;2022-09-13T07:31:14;7.43;;;4.95;;
23338;SDS011;11841;49.368;20.962;2022-09-13T07:33:42;11.13;;;5.20;;
23338;SDS011;11841;49.368;20.962;2022-09-13T07:36:10;6.97;;;5.15;;
23338;SDS011;11841;49.368;20.962;2022-09-13T07:38:41;13.05;;;6.07;;
23338;SDS011;11841;49.368;20.962;2022-09-13T07:41:11;7.13;;;5.20;;
23338;SDS011;11841;49.368;20.962;2022-09-13T07:43:40;8.57;;;5.82;;
23338;SDS011;11841;49.368;20.962;2022-09-13T07:46:08;10.18;;;5.88;;
23338;SDS011;11841;49.368;20.962;2022-09-13T07:51:05;8.25;;;5.72;;
23338;SDS011;11841;49.368;20.962;2022-09-13T07:53:35;9.15;;;5.70;;
23338;SDS011;11841;49.368;20.962;2022-09-13T07:56:03;8.10;;;5.57;;
23338;SDS011;11841;49.368;20.962;2022-09-13T07:58:32;11.35;;;5.57;;
23338;SDS011;11841;49.368;20.962;2022-09-13T08:01:03;7.03;;;5.20;;
23338;SDS011;11841;49.368;20.962;2022-09-13T08:03:31;10.68;;;5.32;;
23338;SDS011;11841;49.368;20.962;2022-09-13T08:05:58;10.25;;;5.50;;
23338;SDS011;11841;49.368;20.962;2022-09-13T08:08:27;7.80;;;4.78;;
23338;SDS011;11841;49.368;20.962;2022-09-13T08:10:54;6.75;;;5.65;;
23338;SDS011;11841;49.368;20.962;2022-09-13T08:13:20;10.90;;;4.93;;
23338;SDS011;11841;49.368;20.962;2022-09-13T08:15:47;6.32;;;4.63;;
23338;SDS011;11841;49.368;20.962;2022-09-13T08:18:18;6.85;;;5.00;;
23338;SDS011;11841;49.368;20.962;2022-09-13T08:20:45;8.15;;;4.88;;
23338;SDS011;11841;49.368;20.962;2022-09-13T08:23:11;12.13;;;4.70;;
23338;SDS011;11841;49.368;20.962;2022-09-13T08:25:38;6.70;;;4.63;;
23338;SDS011;11841;49.368;20.962;2022-09-13T08:28:06;6.18;;;4.60;;
23338;SDS011;11841;49.368;20.962;2022-09-13T08:30:36;6.03;;;4.65;;
23338;SDS011;11841;49.368;20.962;2022-09-13T08:33:03;6.65;;;4.65;;
23338;SDS011;11841;49.368;20.962;2022-09-13T08:35:30;7.07;;;4.88;;
23338;SDS011;11841;49.368;20.962;2022-09-13T08:37:57;8.10;;;5.18;;
23338;SDS011;11841;49.368;20.962;2022-09-13T08:40:26;6.63;;;4.55;;
23338;SDS011;11841;49.368;20.962;2022-09-13T08:45:31;5.93;;;4.20;;
23338;SDS011;11841;49.368;20.962;2022-09-13T08:48:00;6.03;;;5.07;;
23338;SDS011;11841;49.368;20.962;2022-09-13T08:50:30;5.43;;;4.47;;
23338;SDS011;11841;49.368;20.962;2022-09-13T08:53:02;5.57;;;4.43;;
23338;SDS011;11841;49.368;20.962;2022-09-13T08:56:05;5.90;;;4.07;;
23338;SDS011;11841;49.368;20.962;2022-09-13T08:58:49;16.02;;;7.05;;
23338;SDS011;11841;49.368;20.962;2022-09-13T09:01:28;6.80;;;4.40;;
23338;SDS011;11841;49.368;20.962;2022-09-13T09:06:58;11.20;;;3.92;;
23338;SDS011;11841;49.368;20.962;2022-09-13T09:24:35;6.65;;;3.22;;
23338;SDS011;11841;49.368;20.962;2022-09-13T09:35:07;3.53;;;3.17;;
23338;SDS011;11841;49.368;20.962;2022-09-13T09:40:58;7.80;;;3.58;;
23338;SDS011;11841;49.368;20.962;2022-09-13T09:44:05;11.38;;;3.35;;
23338;SDS011;11841;49.368;20.962;2022-09-13T09:46:39;4.32;;;2.42;;
23338;SDS011;11841;49.368;20.962;2022-09-13T09:49:16;4.13;;;2.80;;
23338;SDS011;11841;49.368;20.962;2022-09-13T09:52:05;4.93;;;3.08;;
23338;SDS011;11841;49.368;20.962;2022-09-13T09:54:36;4.72;;;2.88;;
23338;SDS011;11841;49.368;20.962;2022-09-13T09:57:04;5.28;;;4.03;;
23338;SDS011;11841;49.368;20.962;2022-09-13T09:59:33;3.22;;;2.92;;
23338;SDS011;11841;49.368;20.962;2022-09-13T10:02:01;3.47;;;2.85;;
23338;SDS011;11841;49.368;20.962;2022-09-13T10:04:52;2.90;;;2.60;;
23338;SDS011;11841;49.368;20.962;2022-09-13T10:07:23;3.15;;;2.53;;
23338;SDS011;11841;49.368;20.962;2022-09-13T10:10:05;3.95;;;3.00;;
23338;SDS011;11841;49.368;20.962;2022-09-13T10:12:47;3.33;;;2.78;;
23338;SDS011;11841;49.368;20.962;2022-09-13T10:15:18;4.13;;;2.63;;
23338;SDS011;11841;49.368;20.962;2022-09-13T10:18:12;3.42;;;2.60;;
23338;SDS011;11841;49.368;20.962;2022-09-13T10:23:32;3.30;;;3.00;;
23338;SDS011;11841;49.368;20.962;2022-09-13T10:28:28;4.03;;;3.00;;
23338;SDS011;11841;49.368;20.962;2022-09-13T10:30:58;4.85;;;2.63;;
23338;SDS011;11841;49.368;20.962;2022-09-13T10:33:34;2.60;;;2.40;;
23338;SDS011;11841;49.368;20.962;2022-09-13T10:36:10;5.78;;;2.60;;
23338;SDS011;11841;49.368;20.962;2022-09-13T10:38:48;3.95;;;2.80;;
23338;SDS011;11841;49.368;20.962;2022-09-13T10:41:23;3.00;;;2.70;;
23338;SDS011;11841;49.368;20.962;2022-09-13T10:43:55;3.67;;;3.00;;
23338;SDS011;11841;49.368;20.962;2022-09-13T10:46:24;4.15;;;2.90;;
23338;SDS011;11841;49.368;20.962;2022-09-13T10:48:52;3.35;;;2.40;;
23338;SDS011;11841;49.368;20.962;2022-09-13T10:51:28;2.97;;;2.67;;
23338;SDS011;11841;49.368;20.962;2022-09-13T10:56:48;3.83;;;2.72;;
23338;SDS011;11841;49.368;20.962;2022-09-13T10:59:18;6.10;;;2.95;;
23338;SDS011;11841;49.368;20.962;2022-09-13T11:07:42;3.20;;;2.30;;
23338;SDS011;11841;49.368;20.962;2022-09-13T11:23:48;5.50;;;2.28;;
23338;SDS011;11841;49.368;20.962;2022-09-13T11:26:33;4.70;;;2.35;;
23338;SDS011;11841;49.368;20.962;2022-09-13T11:29:17;3.05;;;2.00;;
23338;SDS011;11841;49.368;20.962;2022-09-13T11:34:26;3.05;;;2.20;;
23338;SDS011;11841;49.368;20.962;2022-09-13T11:37:10;2.10;;;1.90;;
23338;SDS011;11841;49.368;20.962;2022-09-13T11:42:46;2.75;;;2.40;;
23338;SDS011;11841;49.368;20.962;2022-09-13T11:48:16;2.28;;;1.85;;
23338;SDS011;11841;49.368;20.962;2022-09-13T11:53:48;2.05;;;1.85;;
23338;SDS011;11841;49.368;20.962;2022-09-13T11:56:35;2.95;;;1.88;;
23338;SDS011;11841;49.368;20.962;2022-09-13T12:01:48;2.08;;;1.75;;
23338;SDS011;11841;49.368;20.962;2022-09-13T12:04:23;2.97;;;1.88;;
23338;SDS011;11841;49.368;20.962;2022-09-13T12:07:00;4.63;;;2.20;;
23338;SDS011;11841;49.368;20.962;2022-09-13T12:09:32;2.30;;;2.10;;
23338;SDS011;11841;49.368;20.962;2022-09-13T12:12:07;3.45;;;2.50;;
23338;SDS011;11841;49.368;20.962;2022-09-13T12:14:59;2.50;;;2.10;;
23338;SDS011;11841;49.368;20.962;2022-09-13T12:17:34;3.47;;;2.28;;
23338;SDS011;11841;49.368;20.962;2022-09-13T12:20:24;3.72;;;2.28;;
23338;SDS011;11841;49.368;20.962;2022-09-13T12:22:58;3.85;;;2.58;;
23338;SDS011;11841;49.368;20.962;2022-09-13T12:25:37;3.50;;;2.30;;
23338;SDS011;11841;49.368;20.962;2022-09-13T12:28:12;2.58;;;2.10;;
23338;SDS011;11841;49.368;20.962;2022-09-13T12:30:46;6.72;;;2.40;;
23338;SDS011;11841;49.368;20.962;2022-09-13T12:33:19;4.10;;;2.30;;
23338;SDS011;11841;49.368;20.962;2022-09-13T12:35:49;2.42;;;2.03;;
23338;SDS011;11841;49.368;20.962;2022-09-13T12:38:58;4.30;;;1.90;;
23338;SDS011;11841;49.368;20.962;2022-09-13T12:41:34;3.80;;;1.80;;
23338;SDS011;11841;49.368;20.962;2022-09-13T12:47:15;2.13;;;1.88;;
23338;SDS011;11841;49.368;20.962;2022-09-13T13:01:46;2.30;;;2.10;;
23338;SDS011;11841;49.368;20.962;2022-09-13T13:04:25;1.98;;;1.63;;
23338;SDS011;11841;49.368;20.962;2022-09-13T13:06:56;3.00;;;1.67;;
23338;SDS011;11841;49.368;20.962;2022-09-13T13:12:32;1.90;;;1.55;;
23338;SDS011;11841;49.368;20.962;2022-09-13T13:15:06;3.85;;;1.77;;
23338;SDS011;11841;49.368;20.962;2022-09-13T13:17:56;2.03;;;1.70;;
23338;SDS011;11841;49.368;20.962;2022-09-13T13:23:14;1.70;;;1.60;;
23338;SDS011;11841;49.368;20.962;2022-09-13T13:39:09;1.42;;;1.33;;
23338;SDS011;11841;49.368;20.962;2022-09-13T13:41:42;2.78;;;1.58;;
23338;SDS011;11841;49.368;20.962;2022-09-13T13:46:45;1.95;;;1.75;;
23338;SDS011;11841;49.368;20.962;2022-09-13T13:59:46;2.50;;;1.88;;
23338;SDS011;11841;49.368;20.962;2022-09-13T14:02:16;2.33;;;1.75;;
23338;SDS011;11841;49.368;20.962;2022-09-13T14:13:16;2.95;;;1.95;;
23338;SDS011;11841;49.368;20.962;2022-09-13T14:15:57;4.47;;;1.90;;
23338;SDS011;11841;49.368;20.962;2022-09-13T14:18:58;2.13;;;1.70;;
23338;SDS011;11841;49.368;20.962;2022-09-13T14:21:25;1.42;;;1.33;;
23338;SDS011;11841;49.368;20.962;2022-09-13T14:24:14;6.88;;;2.03;;
23338;SDS011;11841;49.368;20.962;2022-09-13T14:26:50;14.15;;;3.50;;
23338;SDS011;11841;49.368;20.962;2022-09-13T14:29:23;11.43;;;4.20;;
23338;SDS011;11841;49.368;20.962;2022-09-13T14:31:52;8.50;;;3.13;;
23338;SDS011;11841;49.368;20.962;2022-09-13T14:34:27;18.80;;;8.05;;
23338;SDS011;11841;49.368;20.962;2022-09-13T14:36:57;17.30;;;6.45;;
23338;SDS011;11841;49.368;20.962;2022-09-13T14:39:26;56.95;;;21.38;;
23338;SDS011;11841;49.368;20.962;2022-09-13T14:42:12;44.42;;;16.15;;
23338;SDS011;11841;49.368;20.962;2022-09-13T14:44:43;6.75;;;3.33;;
23338;SDS011;11841;49.368;20.962;2022-09-13T14:49:47;12.48;;;5.65;;
23338;SDS011;11841;49.368;20.962;2022-09-13T14:52:23;5.25;;;3.00;;
23338;SDS011;11841;49.368;20.962;2022-09-13T14:54:58;2.47;;;2.03;;
23338;SDS011;11841;49.368;20.962;2022-09-13T14:57:33;2.55;;;2.35;;
23338;SDS011;11841;49.368;20.962;2022-09-13T15:02:52;2.80;;;2.22;;
23338;SDS011;11841;49.368;20.962;2022-09-13T15:05:31;2.47;;;2.10;;
23338;SDS011;11841;49.368;20.962;2022-09-13T15:07:59;2.72;;;2.05;;
23338;SDS011;11841;49.368;20.962;2022-09-13T15:10:27;3.67;;;1.63;;
23338;SDS011;11841;49.368;20.962;2022-09-13T15:17:58;2.40;;;2.08;;
23338;SDS011;11841;49.368;20.962;2022-09-13T15:20:27;4.35;;;2.58;;
23338;SDS011;11841;49.368;20.962;2022-09-13T15:22:56;5.07;;;2.10;;
23338;SDS011;11841;49.368;20.962;2022-09-13T15:25:26;5.63;;;2.30;;
23338;SDS011;11841;49.368;20.962;2022-09-13T15:27:55;6.28;;;2.05;;
23338;SDS011;11841;49.368;20.962;2022-09-13T15:30:29;3.83;;;2.20;;
23338;SDS011;11841;49.368;20.962;2022-09-13T15:35:39;3.85;;;2.00;;
23338;SDS011;11841;49.368;20.962;2022-09-13T15:38:18;2.40;;;1.90;;
23338;SDS011;11841;49.368;20.962;2022-09-13T15:43:50;11.30;;;4.15;;
23338;SDS011;11841;49.368;20.962;2022-09-13T15:46:16;5.65;;;2.60;;
23338;SDS011;11841;49.368;20.962;2022-09-13T15:48:47;2.28;;;1.80;;
23338;SDS011;11841;49.368;20.962;2022-09-13T15:51:17;3.00;;;1.88;;
23338;SDS011;11841;49.368;20.962;2022-09-13T15:53:44;3.80;;;1.80;;
23338;SDS011;11841;49.368;20.962;2022-09-13T15:56:13;3.75;;;1.70;;
23338;SDS011;11841;49.368;20.962;2022-09-13T15:58:42;2.00;;;1.80;;
23338;SDS011;11841;49.368;20.962;2022-09-13T16:01:09;1.90;;;1.60;;
23338;SDS011;11841;49.368;20.962;2022-09-13T16:03:38;2.78;;;1.70;;
23338;SDS011;11841;49.368;20.962;2022-09-13T16:06:05;3.58;;;1.60;;
23338;SDS011;11841;49.368;20.962;2022-09-13T16:08:34;1.92;;;1.83;;
23338;SDS011;11841;49.368;20.962;2022-09-13T16:11:02;2.20;;;1.73;;
23338;SDS011;11841;49.368;20.962;2022-09-13T16:13:28;2.72;;;2.28;;
23338;SDS011;11841;49.368;20.962;2022-09-13T16:15:55;2.70;;;1.92;;
23338;SDS011;11841;49.368;20.962;2022-09-13T16:18:23;4.13;;;2.45;;
23338;SDS011;11841;49.368;20.962;2022-09-13T16:20:50;6.35;;;2.15;;
23338;SDS011;11841;49.368;20.962;2022-09-13T16:23:16;2.22;;;2.03;;
23338;SDS011;11841;49.368;20.962;2022-09-13T16:25:43;2.92;;;2.53;;
23338;SDS011;11841;49.368;20.962;2022-09-13T16:28:16;8.30;;;2.30;;
23338;SDS011;11841;49.368;20.962;2022-09-13T16:30:46;6.65;;;2.40;;
23338;SDS011;11841;49.368;20.962;2022-09-13T16:33:13;3.55;;;2.20;;
23338;SDS011;11841;49.368;20.962;2022-09-13T16:35:40;3.88;;;2.78;;
23338;SDS011;11841;49.368;20.962;2022-09-13T16:38:08;4.88;;;2.88;;
23338;SDS011;11841;49.368;20.962;2022-09-13T16:40:37;3.42;;;2.65;;
23338;SDS011;11841;49.368;20.962;2022-09-13T16:43:05;6.82;;;2.22;;
23338;SDS011;11841;49.368;20.962;2022-09-13T16:45:32;2.78;;;2.47;;
23338;SDS011;11841;49.368;20.962;2022-09-13T16:47:59;3.78;;;2.30;;
23338;SDS011;11841;49.368;20.962;2022-09-13T16:50:26;3.47;;;2.40;;
23338;SDS011;11841;49.368;20.962;2022-09-13T16:52:56;2.15;;;1.95;;
23338;SDS011;11841;49.368;20.962;2022-09-13T16:55:22;2.70;;;2.03;;
23338;SDS011;11841;49.368;20.962;2022-09-13T16:57:51;4.27;;;2.47;;
23338;SDS011;11841;49.368;20.962;2022-09-13T17:00:17;2.92;;;2.33;;
23338;SDS011;11841;49.368;20.962;2022-09-13T17:02:45;2.30;;;2.10;;
23338;SDS011;11841;49.368;20.962;2022-09-13T17:05:12;2.58;;;2.38;;
23338;SDS011;11841;49.368;20.962;2022-09-13T17:07:39;2.50;;;2.30;;
23338;SDS011;11841;49.368;20.962;2022-09-13T17:10:06;4.93;;;2.53;;
23338;SDS011;11841;49.368;20.962;2022-09-13T17:12:33;16.27;;;7.15;;
23338;SDS011;11841;49.368;20.962;2022-09-13T17:15:00;8.48;;;5.20;;
23338;SDS011;11841;49.368;20.962;2022-09-13T17:17:26;16.25;;;6.70;;
23338;SDS011;11841;49.368;20.962;2022-09-13T17:19:53;8.55;;;4.50;;
23338;SDS011;11841;49.368;20.962;2022-09-13T17:22:19;6.35;;;3.67;;
23338;SDS011;11841;49.368;20.962;2022-09-13T17:24:46;5.72;;;2.92;;
23338;SDS011;11841;49.368;20.962;2022-09-13T17:27:12;4.00;;;2.90;;
23338;SDS011;11841;49.368;20.962;2022-09-13T17:29:39;3.38;;;2.47;;
23338;SDS011;11841;49.368;20.962;2022-09-13T17:32:05;2.53;;;2.28;;
23338;SDS011;11841;49.368;20.962;2022-09-13T17:34:32;3.83;;;2.92;;
23338;SDS011;11841;49.368;20.962;2022-09-13T17:37:00;8.45;;;2.67;;
23338;SDS011;11841;49.368;20.962;2022-09-13T17:39:29;2.47;;;2.28;;
23338;SDS011;11841;49.368;20.962;2022-09-13T17:41:56;6.82;;;3.35;;
23338;SDS011;11841;49.368;20.962;2022-09-13T17:44:23;13.70;;;6.28;;
23338;SDS011;11841;49.368;20.962;2022-09-13T17:46:50;27.52;;;12.77;;
23338;SDS011;11841;49.368;20.962;2022-09-13T17:49:18;26.02;;;11.55;;
23338;SDS011;11841;49.368;20.962;2022-09-13T17:51:45;11.45;;;6.03;;
23338;SDS011;11841;49.368;20.962;2022-09-13T17:54:12;7.13;;;3.67;;
23338;SDS011;11841;49.368;20.962;2022-09-13T17:56:40;7.13;;;4.25;;
23338;SDS011;11841;49.368;20.962;2022-09-13T18:01:53;4.78;;;3.28;;
23338;SDS011;11841;49.368;20.962;2022-09-13T18:04:21;8.02;;;4.68;;
23338;SDS011;11841;49.368;20.962;2022-09-13T18:06:51;8.65;;;4.32;;
23338;SDS011;11841;49.368;20.962;2022-09-13T18:09:19;7.38;;;4.97;;
23338;SDS011;11841;49.368;20.962;2022-09-13T18:11:46;8.75;;;4.15;;
23338;SDS011;11841;49.368;20.962;2022-09-13T18:14:13;5.45;;;3.95;;
23338;SDS011;11841;49.368;20.962;2022-09-13T18:16:41;5.88;;;3.03;;
23338;SDS011;11841;49.368;20.962;2022-09-13T18:19:09;3.78;;;3.03;;
23338;SDS011;11841;49.368;20.962;2022-09-13T18:21:36;6.35;;;3.67;;
23338;SDS011;11841;49.368;20.962;2022-09-13T18:24:03;8.20;;;4.25;;
23338;SDS011;11841;49.368;20.962;2022-09-13T18:26:30;7.30;;;3.90;;
23338;SDS011;11841;49.368;20.962;2022-09-13T18:28:58;7.13;;;4.35;;
23338;SDS011;11841;49.368;20.962;2022-09-13T18:31:30;29.92;;;11.90;;
23338;SDS011;11841;49.368;20.962;2022-09-13T18:33:58;11.73;;;5.93;;
23338;SDS011;11841;49.368;20.962;2022-09-13T18:36:27;4.82;;;3.40;;